x

Sentry Shoal (46131) Wave Buoy

2:00pm - Thu 20th Jul 2017 All times are PDT. -7 hours from GMT.

  • Sig Wave height 0.3ft
  • Peak Period 2s
  • Wind
    4mph, 4mph gusts
  • Sea Temp 69°f
  • Air Temp 63°f
  • Sea Pressure 1018.9mb
  • Sentry Shoal
  • Sentry Shoal

More Historic Weather Station data

Upgrade to MSW Pro to gain access to the past 30 days of data for over 8000 Wavebouys and Weather Stations around the globe.

Join Pro

Comparision Forecast

View Surf forecast
   
Thu 07/20 2:00pm 0.3ft 2s 4 4 mph 1018.9mb 69f 63f
1:00pm 0.3ft 2s 2 4 mph 1018.9mb 68f 63f
12:00pm 0.3ft 2s 2 2 mph 1018.8mb 67f 63f
11:00am 0.7ft 2s 4 7 mph 1018.2mb 67f 62f
10:00am 0.7ft 2s 9 11 mph 1017.7mb 66f 60f
9:00am 0.7ft 2s 9 11 mph 1017.6mb 66f 60f
8:00am 0.7ft 2s 9 11 mph 1017.2mb 66f 59f
7:00am 0.7ft 2s 11 13 mph 1016.9mb 66f 60f
6:00am 0.7ft 3s 9 11 mph 1016.5mb 66f 60f
5:00am 0.7ft 2s 9 11 mph 1016.1mb 65f 60f
4:00am 0.7ft 2s 13 13 mph 1015.4mb 65f 61f
3:00am 0.7ft 2s 9 9 mph 1015.5mb 65f 62f
2:00am 0.3ft 2s 9 11 mph 1015.3mb 65f 63f
1:00am 0.3ft 2s 9 11 mph 1015.1mb 65f 63f
12:00am 0.7ft 2s 9 11 mph 1014.9mb 66f 64f
Wed 07/19 11:00pm 0.7ft 2s 9 13 mph 1014.6mb 66f 65f
10:00pm 0.3ft 7s 9 11 mph 1014.8mb 66f 65f
9:00pm 0.7ft 7s 9 11 mph 1014.6mb 67f 67f
8:00pm 0.3ft 3s 2 4 mph 1014.5mb 67f 67f
7:00pm 0.7ft 3s 4 4 mph 1014.5mb 68f 67f
6:00pm 0.7ft 3s 2 4 mph 1014.5mb 68f 68f
5:00pm 0.3ft 2s 7 7 mph 1015.2mb 68f 67f
4:00pm 0.7ft 2s 7 7 mph 1015.8mb 67f 67f
3:00pm 0.7ft 2s 7 9 mph 1016.3mb 67f 66f
2:00pm 0.7ft 2s 7 9 mph 1017.1mb 67f 66f
1:00pm 1ft 3s 9 9 mph 1017.4mb 67f 66f
12:00pm 0.7ft 3s 11 13 mph 1017.8mb 67f 66f
11:00am 0.3ft 3s 4 7 mph 1018.1mb 67f 65f
10:00am 0.3ft 2s  -  0 mph 1018.4mb 67f 65f
9:00am 0.3ft 2s 4 7 mph 1018.1mb 66f 64f
8:00am 0.7ft 2s 7 9 mph 1017.8mb 66f 64f
7:00am 0.3ft 2s 9 11 mph 1017.5mb 66f 62f
6:00am 0.7ft 2s 9 9 mph 1017.2mb 66f 61f
5:00am 0.7ft 2s 7 9 mph 1016.7mb 66f 61f
4:00am 0.7ft 2s 7 9 mph 1016.2mb 66f 62f
3:00am 0.7ft 2s 9 11 mph 1015.9mb 66f 66f
2:00am 0.7ft 2s 11 13 mph 1015.5mb 65f 66f
1:00am 0.3ft 2s 13 16 mph 1015.1mb 66f 67f
12:00am 0.3ft 2s 7 9 mph 1015mb 68f 67f
Tue 07/18 11:00pm 0.3ft 3s 7 9 mph 1014.6mb 67f 68f
10:00pm 0.3ft 3s 7 7 mph 1014.2mb 67f 69f
9:00pm 0.3ft 2s 7 7 mph 1014mb 67f 68f
8:00pm 0.3ft 2s 4 4 mph 1014mb 69f 69f
7:00pm 0.3ft 4s 4 4 mph 1014.1mb 69f 71f
6:00pm 0.3ft 3s 2 4 mph 1014.4mb 69f 70f
5:00pm 0.3ft 6s  -  mph 1014.8mb 68f 71f
4:00pm 0.3ft 3s  -  mph 1015.2mb 67f 69f
3:00pm 0.3ft 3s  -  2 mph 1015.6mb 69f 67f
2:00pm 0.3ft 2s  -  2 mph 1015.9mb 68f 67f
1:00pm 0.3ft 3s 2 4 mph 1016.3mb 68f 65f
12:00pm 0.3ft 2s 2 2 mph 1016.7mb 68f 64f
11:00am 0.3ft 2s  -  mph 1016.9mb 66f 65f
10:00am 0.3ft 2s 4 4 mph 1017.2mb 65f 62f
9:00am 0.7ft 2s 9 9 mph 1017.4mb 65f 61f
8:00am 1ft 2s 11 13 mph 1017.3mb 65f 60f
7:00am 1ft 2s 13 13 mph 1017.2mb 65f 60f
6:00am 1ft 3s 11 13 mph 1017mb 65f 60f
5:00am 1ft 3s 11 13 mph 1016.8mb 65f 61f
4:00am 1ft 3s 13 16 mph 1016.6mb 64f 62f
3:00am 1ft 2s 16 18 mph 1016.4mb 64f 62f
2:00am 1ft 2s 18 18 mph 1016.2mb 65f 63f
1:00am 1ft 2s 16 18 mph 1016.1mb 65f 64f
12:00am 0.3ft 2s 13 16 mph 1016.1mb 66f 65f
Mon 07/17 11:00pm 0.3ft 3s 9 13 mph 1016.1mb 66f 67f
10:00pm 0.3ft 2s 4 4 mph 1016.1mb 67f 67f
9:00pm 0.3ft 2s 4 4 mph 1016mb 67f 67f
8:00pm 0.3ft 3s  -  2 mph 1016.3mb 69f 69f
7:00pm  -  2s 2 2 mph 1016.5mb 71f 70f
6:00pm  -  2s 2 4 mph 1017mb 68f 69f
5:00pm 0.3ft 3s 2 4 mph 1017.5mb 69f 69f
4:00pm 0.3ft 4s  -  mph 1018.1mb 70f 73f
3:00pm 0.3ft 3s 2 2 mph 1018.6mb 69f 68f
2:00pm 0.3ft 2s 2 4 mph 1019.3mb 68f 65f
1:00pm 0.3ft 4s 4 4 mph 1019.9mb 66f 63f
12:00pm 0.3ft 2s 4 7 mph 1020.3mb 65f 62f
11:00am 0.7ft 2s 9 9 mph 1020.7mb 65f 61f
10:00am 1ft 2s 9 11 mph 1021.1mb 65f 59f
9:00am 1ft 3s 11 13 mph 1021.4mb 64f 58f
8:00am 1ft 3s 16 18 mph 1021.5mb 64f 57f
7:00am 1ft 3s 16 18 mph 1021.4mb 64f 57f
6:00am 1.3ft 3s 16 18 mph 1021.5mb 64f 57f
5:00am 1.3ft 3s 13 16 mph 1021.1mb 65f 58f
4:00am 1.3ft 3s 16 20 mph 1021.1mb 65f 59f
3:00am 1.3ft 3s 13 18 mph 1021.4mb 65f 60f
2:00am 1ft 2s 16 18 mph 1021.6mb 65f 60f
1:00am 1.3ft 3s 16 18 mph 1021.8mb 65f 61f
12:00am 1.3ft 2s 18 20 mph 1022.1mb 65f 62f
Sun 07/16 11:00pm 1ft 2s 13 18 mph 1022mb 65f 63f